Time;durP1;ratioP1;P1;durP2;ratioP2;P2;SDS_P1;SDS_P2;PMS_P1;PMS_P2;Temp;Humidity;BMP_temperature;BMP_pressure;BME280_temperature;BME280_humidity;BME280_pressure;Samples;Min_cycle;Max_cycle;Signal;HPM_P1;HPM_P2
2022/02/04 00:21:53;;;;;;;5.00;2.38;;;;;;;19.32;46.73;101009.78;4942835;29;20155;-59
2022/02/04 00:24:20;;;;;;;5.00;2.20;;;;;;;19.29;46.82;101005.69;4940933;29;20039;-59
2022/02/04 00:26:53;;;;;;;4.35;2.63;;;;;;;19.30;46.52;101002.03;4938916;29;20753;-58
2022/02/04 00:29:31;;;;;;;7.28;2.78;;;;;;;19.28;46.56;101000.59;4943933;29;20070;-58
2022/02/04 00:32:03;;;;;;;3.92;2.45;;;;;;;19.27;46.61;101002.41;4945891;29;20031;-58
2022/02/04 00:34:36;;;;;;;4.35;2.20;;;;;;;19.26;46.58;101003.41;4948940;29;20426;-58
2022/02/04 00:39:35;;;;;;;3.97;2.65;;;;;;;19.25;46.48;100998.31;4947279;29;20075;-59
2022/02/04 00:42:06;;;;;;;3.25;2.53;;;;;;;19.24;46.41;101002.78;4942031;29;20062;-59
2022/02/04 00:44:32;;;;;;;4.55;2.78;;;;;;;19.22;46.46;101004.81;4950048;29;20434;-58
2022/02/04 00:49:43;;;;;;;5.25;2.75;;;;;;;19.21;46.40;101006.63;4947679;29;20039;-59
2022/02/04 00:57:17;;;;;;;4.95;2.55;;;;;;;19.20;46.24;100996.25;4946194;29;20058;-59
2022/02/04 01:13:40;;;;;;;4.32;2.50;;;;;;;19.15;45.93;100986.25;4947932;29;20085;-58
2022/02/04 01:27:02;;;;;;;3.72;2.75;;;;;;;19.11;45.96;100970.94;4944825;29;20106;-58
2022/02/04 01:29:32;;;;;;;4.60;2.50;;;;;;;19.12;45.88;100973.41;4947671;29;20027;-58
2022/02/04 01:31:58;;;;;;;4.20;3.00;;;;;;;19.11;45.78;100958.56;4942661;29;20047;-61
2022/02/04 01:34:23;;;;;;;4.38;2.45;;;;;;;19.11;45.79;100947.19;4945983;29;20085;-60
2022/02/04 01:36:49;;;;;;;4.45;2.85;;;;;;;19.11;45.78;100955.09;4941486;29;20039;-59
2022/02/04 01:39:14;;;;;;;4.97;2.72;;;;;;;19.10;45.70;100949.00;4946201;28;20511;-58
2022/02/04 01:41:40;;;;;;;3.40;2.60;;;;;;;19.09;45.73;100941.28;4942159;28;20440;-58
2022/02/04 01:44:27;;;;;;;4.68;2.88;;;;;;;19.06;45.60;100939.00;4947665;29;20039;-58
2022/02/04 01:46:53;;;;;;;6.45;3.00;;;;;;;19.07;45.69;100932.72;4943524;29;20082;-59
2022/02/04 01:49:18;;;;;;;3.75;2.30;;;;;;;19.07;45.59;100933.53;4946697;29;20324;-59
2022/02/04 01:51:45;;;;;;;3.88;3.30;;;;;;;19.08;45.49;100934.34;4940433;29;20403;-59
2022/02/04 01:54:11;;;;;;;4.75;3.10;;;;;;;19.07;45.56;100924.78;4946570;29;20054;-59
2022/02/04 01:56:37;;;;;;;3.65;3.00;;;;;;;19.07;45.39;100932.72;4941572;29;20024;-60
2022/02/04 01:59:02;;;;;;;4.70;3.00;;;;;;;19.06;45.33;100925.81;4944358;29;20042;-59
2022/02/04 02:01:28;;;;;;;6.78;3.47;;;;;;;19.06;45.41;100928.44;4942714;29;20019;-59
2022/02/04 02:03:55;;;;;;;4.65;3.03;;;;;;;19.04;45.46;100919.88;4947535;29;20467;-59
2022/02/04 02:06:57;;;;;;;5.50;3.13;;;;;;;19.01;45.27;100917.63;4945543;29;20403;-59
2022/02/04 02:09:30;;;;;;;7.45;3.15;;;;;;;19.02;45.00;100922.72;4947645;29;20419;-58
2022/02/04 02:11:59;;;;;;;5.43;3.33;;;;;;;19.02;45.46;100909.50;5203989;23;20145;-43
2022/02/04 02:14:28;;;;;;;3.50;2.33;;;;;;;19.01;45.25;100907.88;4983999;28;20054;-43
2022/02/04 02:43:12;;;;;;;4.10;1.90;;;;;;;18.91;46.52;100917.94;4911399;28;20456;-43
2022/02/04 02:51:32;;;;;;;6.93;3.08;;;;;;;18.90;46.67;100908.41;4945394;29;20422;-40
2022/02/04 02:57:05;;;;;;;3.42;2.10;;;;;;;18.87;46.59;100891.13;4949238;29;20039;-44
2022/02/04 03:02:15;;;;;;;4.13;2.78;;;;;;;18.86;46.22;100886.03;4933660;29;20554;-41
2022/02/04 03:04:41;;;;;;;3.95;3.17;;;;;;;18.87;46.07;100890.31;4948984;29;20035;-43
2022/02/04 03:07:07;;;;;;;3.00;2.75;;;;;;;18.87;46.02;100880.56;4969320;28;20520;-46
2022/02/04 03:09:32;;;;;;;3.47;2.45;;;;;;;18.87;45.98;100877.91;4990744;28;20420;-39
2022/02/04 03:11:58;;;;;;;5.00;3.25;;;;;;;18.88;45.95;100876.91;4995590;28;20078;-44
2022/02/04 03:14:23;;;;;;;4.70;3.28;;;;;;;18.88;46.02;100876.91;5010517;28;20497;-40
2022/02/04 03:16:49;;;;;;;4.18;3.05;;;;;;;18.87;45.89;100880.56;4994380;28;20124;-44
2022/02/04 03:19:15;;;;;;;5.07;3.42;;;;;;;18.87;45.76;100875.28;4991200;28;20089;-38
2022/02/04 03:21:44;;;;;;;4.18;2.90;;;;;;;18.87;45.86;100875.28;4990880;28;20043;-42
2022/02/04 03:24:15;;;;;;;5.07;2.90;;;;;;;18.87;45.90;100870.00;4972878;28;20030;-45
2022/02/04 03:29:09;;;;;;;4.65;2.90;;;;;;;18.84;46.13;100865.09;4990824;28;20129;-46
2022/02/04 03:31:41;;;;;;;4.70;2.22;;;;;;;18.84;46.10;100862.44;4989967;28;20133;-46
2022/02/04 03:34:07;;;;;;;2.58;1.85;;;;;;;18.82;46.09;100856.53;4990409;28;20034;-45
2022/02/04 03:36:32;;;;;;;3.65;2.47;;;;;;;18.82;46.14;100856.53;4990489;28;20026;-47
2022/02/04 03:38:58;;;;;;;2.58;2.17;;;;;;;18.84;45.96;100854.53;4989896;28;20040;-49
2022/02/04 03:41:23;;;;;;;3.13;2.15;;;;;;;18.85;45.98;100855.34;4990302;28;20042;-45
2022/02/04 03:43:49;;;;;;;2.80;2.00;;;;;;;18.86;45.99;100857.81;4990115;28;20088;-48
2022/02/04 03:46:14;;;;;;;3.67;3.03;;;;;;;18.85;45.85;100847.44;4990251;28;20133;-51
2022/02/04 03:48:40;;;;;;;3.97;2.85;;;;;;;18.85;45.95;100850.06;4990039;28;20138;-44
2022/02/04 03:51:05;;;;;;;3.47;2.47;;;;;;;18.84;45.88;100843.97;4990473;28;20050;-44
2022/02/04 03:53:31;;;;;;;5.32;2.45;;;;;;;18.84;45.65;100848.44;4989696;28;20030;-45
2022/02/04 03:55:57;;;;;;;3.50;2.20;;;;;;;18.83;45.62;100844.97;4972004;28;20034;-38
2022/02/04 03:58:23;;;;;;;4.07;3.10;;;;;;;18.83;45.75;100847.63;4989561;28;20787;-46
2022/02/04 04:00:48;;;;;;;4.38;2.55;;;;;;;18.84;45.75;100843.16;4989865;28;20830;-43
2022/02/04 04:03:14;;;;;;;3.25;2.70;;;;;;;18.84;45.60;100840.50;4990060;28;20121;-49
2022/02/04 04:05:45;;;;;;;6.57;2.65;;;;;;;18.81;45.63;100841.72;4989721;28;20036;-42
2022/02/04 04:08:13;;;;;;;4.07;2.45;;;;;;;18.80;45.76;100848.00;4989944;28;20031;-49
2022/02/04 04:10:40;;;;;;;4.50;2.15;;;;;;;18.79;45.93;100833.16;4972198;28;20648;-44
2022/02/04 04:13:06;;;;;;;4.22;2.53;;;;;;;18.78;45.70;100839.44;4983040;28;20157;-42
2022/02/04 04:15:33;;;;;;;3.03;2.58;;;;;;;18.78;45.64;100834.16;4989156;28;20042;-48
2022/02/04 04:17:59;;;;;;;4.05;2.88;;;;;;;18.78;45.57;100836.81;4990059;28;20092;-50
2022/02/04 04:20:26;;;;;;;5.20;2.92;;;;;;;18.78;45.59;100831.53;4989625;28;20464;-46
2022/02/04 04:22:53;;;;;;;3.67;2.22;;;;;;;18.79;45.61;100835.81;4989466;28;20137;-47
2022/02/04 04:25:19;;;;;;;4.15;2.95;;;;;;;18.78;45.46;100828.06;4989374;28;20152;-45
2022/02/04 04:27:45;;;;;;;3.95;2.78;;;;;;;18.78;45.43;100818.31;4989427;28;20022;-45
2022/02/04 04:30:16;;;;;;;4.40;2.55;;;;;;;18.76;45.44;100822.97;4989370;28;20469;-45
2022/02/04 04:32:43;;;;;;;2.92;2.45;;;;;;;18.76;45.44;100812.41;4989669;28;20362;-46
2022/02/04 04:35:11;;;;;;;3.72;2.33;;;;;;;18.77;45.36;100818.53;4988461;28;20042;-44
2022/02/04 04:37:50;;;;;;;2.50;2.30;;;;;;;18.76;45.46;100811.59;4980274;28;20058;-49
2022/02/04 05:29:50;;;;;;;3.05;2.22;;;;;;;18.89;45.01;100791.41;4988682;28;20437;-46
2022/02/04 05:32:16;;;;;;;3.20;2.38;;;;;;;18.96;44.91;100790.63;4987577;28;20061;-41
2022/02/04 05:34:45;;;;;;;4.88;2.40;;;;;;;19.01;44.82;100793.53;4976999;28;20030;-46
2022/02/04 05:37:12;;;;;;;3.65;2.22;;;;;;;19.06;44.82;100788.47;4970341;28;20700;-45
2022/02/04 05:39:46;;;;;;;3.17;2.10;;;;;;;19.12;44.52;100783.25;4987668;28;20042;-41
2022/02/04 05:42:19;;;;;;;3.30;2.38;;;;;;;19.17;44.79;100787.97;4970622;28;20038;-44
2022/02/04 05:44:49;;;;;;;3.25;2.42;;;;;;;19.22;44.61;100790.84;4988159;28;20092;-42
2022/02/04 05:47:17;;;;;;;2.33;1.88;;;;;;;19.26;44.61;100788.63;4970491;28;20386;-43
2022/02/04 05:49:58;;;;;;;3.53;2.03;;;;;;;19.29;44.52;100794.34;4970347;28;20120;-40
2022/02/04 05:52:27;;;;;;;3.45;2.28;;;;;;;19.35;44.58;100790.94;4988011;28;20045;-42
2022/02/04 05:55:21;;;;;;;3.22;1.90;;;;;;;19.43;44.53;100796.03;4987917;28;20038;-44
2022/02/04 05:57:59;;;;;;;2.95;1.98;;;;;;;19.49;44.49;100797.09;4988109;28;20045;-43
2022/02/04 06:00:35;;;;;;;4.35;2.42;;;;;;;19.54;44.34;100803.47;4987581;28;20426;-45
2022/02/04 06:22:26;;;;;;;2.92;1.83;;;;;;;19.94;44.24;100808.94;4944395;29;20569;-42
2022/02/04 06:24:54;;;;;;;4.90;2.28;;;;;;;19.97;44.12;100799.78;4944124;28;20043;-41
2022/02/04 06:27:24;;;;;;;3.42;1.90;;;;;;;20.00;43.54;100802.84;4943710;28;20035;-43
2022/02/04 06:29:51;;;;;;;3.22;1.90;;;;;;;20.03;43.96;100799.81;4944587;28;20126;-44
2022/02/04 06:32:18;;;;;;;5.10;2.10;;;;;;;20.07;43.90;100803.69;4943161;28;20027;-43
2022/02/04 06:34:45;;;;;;;4.95;1.70;;;;;;;20.09;43.99;100801.66;4944168;28;20038;-40
2022/02/04 06:37:11;;;;;;;3.72;2.05;;;;;;;20.12;43.76;100801.28;4947692;28;20199;-43
2022/02/04 06:39:36;;;;;;;2.63;1.63;;;;;;;20.15;43.86;100797.41;4945709;29;20513;-43
2022/02/04 06:42:03;;;;;;;2.42;1.50;;;;;;;20.19;43.77;100803.94;4950257;28;20046;-44
2022/02/04 06:44:29;;;;;;;3.20;1.65;;;;;;;20.24;43.65;100813.94;4983489;28;20442;-42
2022/02/04 06:46:54;;;;;;;1.90;1.30;;;;;;;20.27;43.45;100805.59;4985429;28;20057;-40
2022/02/04 06:49:20;;;;;;;3.78;1.58;;;;;;;20.29;43.54;100799.09;4968337;28;20517;-40
2022/02/04 06:51:45;;;;;;;2.38;1.67;;;;;;;20.33;43.57;100802.13;4989149;28;20030;-42
2022/02/04 06:54:11;;;;;;;2.90;1.73;;;;;;;20.37;43.52;100808.66;4969619;28;20596;-43
2022/02/04 06:56:36;;;;;;;2.85;1.60;;;;;;;20.39;43.32;100811.94;4985553;28;20445;-40
2022/02/04 06:59:04;;;;;;;1.98;1.33;;;;;;;20.42;43.17;100804.44;4986787;28;20124;-42
2022/02/04 07:01:31;;;;;;;2.30;1.25;;;;;;;20.42;43.30;100801.78;4986053;28;20026;-46
2022/02/04 07:03:57;;;;;;;3.95;1.52;;;;;;;20.45;43.17;100800.56;4987209;28;20497;-49
2022/02/04 07:06:23;;;;;;;3.38;1.48;;;;;;;20.46;43.44;100804.84;4990054;28;20030;-46
2022/02/04 07:16:37;;;;;;;2.15;1.13;;;;;;;20.46;43.34;100805.66;4984528;28;20030;-50
2022/02/04 07:21:46;;;;;;;3.17;1.17;;;;;;;20.44;43.00;100814.81;4985866;28;20093;-42
2022/02/04 07:24:12;;;;;;;3.45;1.67;;;;;;;20.42;43.17;100815.00;4986492;28;20023;-40
2022/02/04 07:26:38;;;;;;;2.38;1.08;;;;;;;20.42;43.30;100824.78;4984268;28;20106;-45
2022/02/04 07:29:04;;;;;;;2.38;1.08;;;;;;;20.41;43.08;100821.31;4985906;28;20034;-42
2022/02/04 07:31:33;;;;;;;3.13;1.35;;;;;;;20.41;43.35;100821.31;4985303;28;20084;-45
2022/02/04 07:34:22;;;;;;;2.47;1.00;;;;;;;20.39;43.16;100823.34;4984230;28;20156;-47
2022/02/04 07:42:16;;;;;;;1.65;1.10;;;;;;;20.34;43.25;100820.44;4987771;28;20111;-46
2022/02/04 07:44:42;;;;;;;1.77;0.98;;;;;;;20.33;43.41;100823.28;4989781;28;20037;-44
2022/02/04 07:47:10;;;;;;;2.40;0.85;;;;;;;20.32;43.22;100829.63;4987863;28;20037;-45
2022/02/04 07:49:35;;;;;;;2.60;1.20;;;;;;;20.32;43.30;100829.63;4982314;28;20123;-47
2022/02/04 07:52:00;;;;;;;5.63;1.20;;;;;;;20.31;43.37;100820.06;4981628;28;20167;-44
2022/02/04 07:54:26;;;;;;;1.75;0.90;;;;;;;20.29;43.45;100825.56;4989845;28;20369;-42
2022/02/04 07:56:51;;;;;;;5.85;1.27;;;;;;;20.31;43.58;100822.72;4988386;28;20072;-49
2022/02/04 07:59:17;;;;;;;2.47;1.23;;;;;;;20.33;43.33;100818.81;4980651;28;20034;-41
2022/02/04 08:01:42;;;;;;;3.03;1.08;;;;;;;20.36;43.80;100825.53;4991192;23;20026;-42
2022/02/04 08:04:15;;;;;;;2.13;1.10;;;;;;;20.38;43.78;100831.50;4967797;28;20483;-38
2022/02/04 08:06:47;;;;;;;1.88;0.88;;;;;;;20.37;44.02;100821.88;4958928;28;20177;-44
2022/02/04 08:09:24;;;;;;;4.55;0.95;;;;;;;20.40;44.32;100829.47;4962274;28;20030;-41
2022/02/04 08:14:25;;;;;;;3.45;1.20;;;;;;;20.48;45.17;100827.44;4988069;28;20074;-40
2022/02/04 08:30:13;;;;;;;3.72;1.15;;;;;;;20.32;45.78;100827.00;4985155;28;20041;-41
2022/02/04 08:35:34;;;;;;;1.88;0.80;;;;;;;20.28;45.76;100823.09;4979903;28;20482;-44
2022/02/04 08:49:18;;;;;;;5.28;1.42;;;;;;;20.15;45.55;100837.91;4987347;28;20404;-47
2022/02/04 08:57:02;;;;;;;4.30;1.08;;;;;;;20.12;45.37;100843.59;4985252;28;20042;-37
2022/02/04 09:02:08;;;;;;;5.43;1.23;;;;;;;20.10;45.35;100839.53;4979583;28;20842;-39
2022/02/04 09:04:41;;;;;;;7.97;1.27;;;;;;;20.08;45.30;100847.66;4968254;28;20030;-50
2022/02/04 09:07:11;;;;;;;6.18;0.95;;;;;;;20.07;45.21;100845.19;4988564;28;20054;-46
2022/02/04 09:23:08;;;;;;;3.78;0.93;;;;;;;19.97;44.96;100848.22;5007985;28;20052;-49
2022/02/04 09:25:34;;;;;;;3.80;0.70;;;;;;;19.96;44.74;100843.13;4999433;28;20027;-43
2022/02/04 09:27:59;;;;;;;2.65;0.82;;;;;;;19.94;44.97;100845.94;4989099;28;20684;-45
2022/02/04 09:30:25;;;;;;;3.58;0.40;;;;;;;19.93;44.71;100839.03;4986345;28;20052;-52
2022/02/04 09:32:51;;;;;;;3.72;0.80;;;;;;;19.90;44.78;100847.34;4986966;28;20716;-47
2022/02/04 09:35:22;;;;;;;3.33;0.80;;;;;;;19.89;44.65;100853.66;4967081;28;20029;-46
2022/02/04 09:37:48;;;;;;;3.10;1.45;;;;;;;19.88;44.56;100854.66;4986254;28;20046;-50
2022/02/04 09:40:15;;;;;;;3.28;0.93;;;;;;;19.86;44.49;100851.41;4986832;28;20477;-51
2022/02/04 09:42:42;;;;;;;4.63;1.05;;;;;;;19.84;44.69;100856.09;4986750;28;20038;-44
2022/02/04 09:45:10;;;;;;;4.70;1.48;;;;;;;19.81;45.01;100853.84;4987801;28;20108;-51
2022/02/04 09:47:37;;;;;;;4.07;1.50;;;;;;;19.78;45.24;100851.59;4987685;28;20022;-50
2022/02/04 09:50:17;;;;;;;6.57;1.40;;;;;;;19.74;45.27;100850.34;4969729;28;20097;-45
2022/02/04 10:13:15;;;;;;;3.47;1.00;;;;;;;19.61;44.97;100826.47;4987376;28;20058;-46
2022/02/04 10:16:16;;;;;;;3.03;0.88;;;;;;;19.62;45.02;100818.34;4987129;28;20042;-50
2022/02/04 10:18:50;;;;;;;2.47;1.20;;;;;;;19.62;44.93;100814.88;4969420;28;20433;-42
2022/02/04 10:21:16;;;;;;;2.53;0.80;;;;;;;19.61;44.84;100821.19;4969518;28;20026;-51
2022/02/04 10:23:52;;;;;;;2.00;0.68;;;;;;;19.60;44.60;100817.72;4987212;28;20386;-48
2022/02/04 10:26:19;;;;;;;4.05;0.80;;;;;;;19.62;44.54;100815.69;4987146;28;20117;-45
2022/02/04 10:28:45;;;;;;;2.85;0.82;;;;;;;19.62;44.53;100817.53;4987141;28;20037;-45
2022/02/04 10:31:23;;;;;;;3.30;0.98;;;;;;;19.58;44.49;100795.16;4987440;28;20027;-49
2022/02/04 10:33:57;;;;;;;3.20;1.13;;;;;;;19.59;44.42;100797.59;4986967;28;20187;-50
2022/02/04 10:36:35;;;;;;;2.72;0.90;;;;;;;19.57;44.50;100807.53;4969466;28;20036;-50
2022/02/04 10:39:31;;;;;;;3.58;0.80;;;;;;;19.54;44.53;100808.75;4986618;28;20498;-52
2022/02/04 10:42:26;;;;;;;3.20;0.73;;;;;;;19.53;44.40;100803.66;4986985;28;20073;-51
2022/02/04 10:47:55;;;;;;;1.40;0.73;;;;;;;19.50;44.57;100799.53;4986862;28;20138;-40
2022/02/04 10:59:21;;;;;;;3.83;1.00;;;;;;;19.43;44.80;100785.47;4986831;28;20038;-48
2022/02/04 11:04:13;;;;;;;4.57;1.15;;;;;;;19.38;44.76;100782.59;4987262;28;20061;-45
2022/02/04 11:31:52;;;;;;;1.65;0.90;;;;;;;19.30;44.65;100737.88;4990807;28;20046;-53
2022/02/04 11:49:21;;;;;;;2.10;1.05;;;;;;;19.19;44.81;100706.72;4961613;28;20061;-46
2022/02/04 11:56:56;;;;;;;3.30;1.17;;;;;;;19.17;44.90;100704.25;4971273;28;20046;-47
2022/02/04 11:59:37;;;;;;;3.10;1.23;;;;;;;19.15;44.85;100697.53;4950321;28;20083;-48
2022/02/04 12:02:33;;;;;;;3.53;1.00;;;;;;;19.14;44.84;100691.44;4972820;28;20047;-50
2022/02/04 12:05:08;;;;;;;4.20;1.42;;;;;;;19.12;45.08;100688.19;4963342;28;20050;-38
2022/02/04 12:07:33;;;;;;;2.40;1.13;;;;;;;19.14;44.84;100690.63;4964474;28;20454;-53
2022/02/04 12:10:01;;;;;;;3.53;1.10;;;;;;;19.14;44.77;100690.63;4964522;28;20054;-48
2022/02/04 12:12:59;;;;;;;3.22;1.08;;;;;;;19.11;44.72;100685.72;4966056;28;20629;-53
2022/02/04 12:15:27;;;;;;;2.17;1.45;;;;;;;19.12;44.84;100682.06;4971489;28;20189;-51
2022/02/04 12:17:53;;;;;;;3.78;1.10;;;;;;;19.12;44.88;100688.19;4986076;28;20034;-44
2022/02/04 12:20:54;;;;;;;3.47;1.38;;;;;;;19.09;44.98;100679.81;4988011;28;20577;-50
2022/02/04 12:23:26;;;;;;;2.45;1.10;;;;;;;19.08;44.89;100681.66;4982718;28;20501;-41
2022/02/04 12:26:01;;;;;;;4.28;0.68;;;;;;;19.10;45.00;100684.09;4984215;28;20065;-40
2022/02/04 12:28:45;;;;;;;4.47;1.10;;;;;;;19.06;45.07;100677.56;4985897;28;20049;-44
2022/02/04 12:31:13;;;;;;;2.33;0.60;;;;;;;19.08;45.17;100670.28;4990940;28;20108;-42
2022/02/04 12:33:41;;;;;;;3.45;1.20;;;;;;;19.12;45.46;100671.50;4960908;28;20042;-54
2022/02/04 12:36:43;;;;;;;3.75;1.38;;;;;;;19.13;46.49;100667.88;4987395;28;20035;-41
2022/02/04 12:39:12;;;;;;;3.10;0.68;;;;;;;19.15;46.04;100663.19;4905902;29;20239;-39
2022/02/04 12:41:49;;;;;;;3.15;0.82;;;;;;;19.16;45.84;100667.47;4907479;29;20047;-46
2022/02/04 12:44:20;;;;;;;4.80;1.25;;;;;;;19.16;45.67;100659.56;4906896;29;20040;-45
2022/02/04 12:46:53;;;;;;;5.60;0.90;;;;;;;19.14;45.59;100658.94;4907395;29;20075;-45
2022/02/04 12:49:21;;;;;;;3.08;0.70;;;;;;;19.12;45.47;100648.56;4905892;29;20040;-45
2022/02/04 12:57:39;;;;;;;2.83;0.75;;;;;;;19.14;47.16;100648.38;4832546;29;20038;-40
2022/02/04 13:08:19;;;;;;;2.30;1.10;;;;;;;19.12;47.59;100629.25;4826580;29;20053;-44
2022/02/04 13:10:54;;;;;;;;;;;;;;;19.03;48.06;100630.44;4845379;29;20470;-42
2022/02/04 13:13:20;;;;;;;1.40;0.60;;;;;;;19.07;47.42;100621.94;4876067;29;20030;-46
2022/02/04 13:15:46;;;;;;;1.77;0.60;;;;;;;19.09;47.24;100619.09;4911603;29;20519;-45
2022/02/04 13:18:14;;;;;;;4.35;0.50;;;;;;;19.11;46.98;100619.72;4909099;29;20052;-44
2022/02/04 13:20:42;;;;;;;2.40;0.63;;;;;;;19.11;46.95;100617.06;4908014;29;20046;-43
2022/02/04 13:23:30;;;;;;;2.58;0.60;;;;;;;19.10;46.81;100620.72;4905459;29;20184;-46
2022/02/04 13:26:02;;;;;;;3.08;0.65;;;;;;;19.09;46.60;100614.63;4909136;29;20508;-40
2022/02/04 13:28:37;;;;;;;1.30;0.50;;;;;;;19.08;46.51;100613.00;4913925;29;20040;-40
2022/02/04 13:31:10;;;;;;;3.47;0.95;;;;;;;19.08;46.53;100614.81;4972733;28;20091;-44
2022/02/04 13:33:38;;;;;;;1.45;0.88;;;;;;;19.09;46.68;100613.81;4968070;28;20047;-39
2022/02/04 13:41:19;;;;;;;2.40;1.00;;;;;;;19.10;46.57;100604.88;4976746;28;20045;-41
2022/02/04 13:46:22;;;;;;;3.90;1.20;;;;;;;19.10;46.45;100607.50;4994152;28;20073;-45
2022/02/04 13:51:36;;;;;;;1.70;0.98;;;;;;;19.07;46.55;100600.81;4987438;28;20117;-43
2022/02/04 13:57:27;;;;;;;3.30;0.70;;;;;;;19.01;46.08;100598.94;4986244;28;20643;-44
2022/02/04 14:00:23;;;;;;;1.77;0.65;;;;;;;19.01;46.16;100598.13;4985419;28;20705;-46
2022/02/04 14:02:53;;;;;;;2.72;0.90;;;;;;;19.01;46.02;100606.06;4973747;28;20061;-42
2022/02/04 14:05:31;;;;;;;2.97;1.00;;;;;;;18.99;45.94;100597.50;4979701;28;20489;-45
2022/02/04 14:08:09;;;;;;;3.15;0.80;;;;;;;18.97;45.81;100604.81;4969215;28;20053;-43
2022/02/04 14:10:46;;;;;;;2.20;0.77;;;;;;;18.98;45.91;100595.88;4984719;28;20466;-44
2022/02/04 14:13:13;;;;;;;1.10;0.70;;;;;;;18.98;45.86;100603.81;4958545;23;20061;-50
2022/02/04 14:15:42;;;;;;;2.72;1.10;;;;;;;18.97;45.75;100592.41;4986673;28;20092;-39
2022/02/04 14:18:12;;;;;;;1.63;0.65;;;;;;;18.98;45.86;100598.53;4970613;28;20397;-44
2022/02/04 14:20:44;;;;;;;1.35;0.70;;;;;;;18.97;45.81;100602.16;4994248;28;20034;-47
2022/02/04 14:23:14;;;;;;;1.50;0.80;;;;;;;18.97;45.83;100599.53;4980671;28;20154;-50
2022/02/04 14:26:01;;;;;;;2.08;1.13;;;;;;;18.93;45.82;100596.47;4990505;28;20065;-49
2022/02/04 14:28:42;;;;;;;4.13;1.15;;;;;;;18.94;45.83;100587.53;4986665;28;20042;-49
2022/02/04 14:31:22;;;;;;;1.60;0.70;;;;;;;18.94;45.86;100589.34;4986784;28;20038;-41
2022/02/04 14:36:41;;;;;;;2.55;0.85;;;;;;;18.92;45.74;100586.91;5005635;28;20052;-45
2022/02/04 15:03:20;;;;;;;3.30;0.98;;;;;;;18.95;46.07;100577.78;4988921;28;20080;-43
2022/02/04 15:05:49;;;;;;;2.28;1.40;;;;;;;18.93;46.38;100580.63;4994143;28;20050;-41
2022/02/04 15:08:18;;;;;;;3.22;1.45;;;;;;;18.94;46.16;100571.69;4993979;28;20122;-46
2022/02/04 15:10:47;;;;;;;3.67;1.27;;;;;;;18.95;46.26;100570.69;4983224;28;20193;-47
2022/02/04 15:13:15;;;;;;;3.55;1.25;;;;;;;18.94;46.15;100566.41;4992459;28;20054;-45
2022/02/04 15:15:42;;;;;;;1.75;1.20;;;;;;;18.95;46.13;100575.16;5005419;28;20515;-44
2022/02/04 15:18:08;;;;;;;2.05;1.33;;;;;;;18.93;46.18;100558.69;5002260;28;20117;-45
2022/02/04 15:20:34;;;;;;;2.40;0.88;;;;;;;18.93;46.11;100564.78;5007967;28;20610;-41
2022/02/04 15:23:00;;;;;;;2.17;0.93;;;;;;;18.90;46.10;100571.25;5011169;28;20030;-44
2022/02/04 15:25:25;;;;;;;1.95;0.70;;;;;;;18.90;46.21;100573.91;4999341;28;20671;-41
2022/02/04 15:30:37;;;;;;;2.58;0.82;;;;;;;18.87;46.15;100570.88;4989017;28;20030;-48
2022/02/04 15:33:03;;;;;;;1.70;0.60;;;;;;;18.86;46.06;100569.25;4998400;28;20041;-44
2022/02/04 15:35:30;;;;;;;2.03;0.77;;;;;;;18.85;46.07;100571.06;5004463;28;20034;-41
2022/02/04 15:37:55;;;;;;;2.75;1.00;;;;;;;18.85;46.17;100570.25;4977734;28;20112;-46
2022/02/04 15:40:21;;;;;;;3.20;1.58;;;;;;;18.85;46.27;100572.91;4990300;28;20666;-43
2022/02/04 15:42:55;;;;;;;5.15;1.25;;;;;;;18.82;46.34;100571.47;5003111;28;20219;-45
2022/02/04 15:48:34;;;;;;;5.15;2.00;;;;;;;18.80;46.38;100572.66;4999389;28;20134;-44
2022/02/04 15:51:16;;;;;;;7.40;3.10;;;;;;;18.79;46.29;100569.22;4991038;28;20034;-43
2022/02/04 15:56:41;;;;;;;7.50;2.22;;;;;;;18.81;46.18;100567.19;4990541;28;20256;-45
2022/02/04 16:06:43;;;;;;;6.72;2.53;;;;;;;18.81;46.27;100572.47;4990057;28;20133;-43
2022/02/04 16:09:09;;;;;;;4.13;1.90;;;;;;;18.82;46.18;100570.66;4990421;28;20018;-43
2022/02/04 16:15:01;;;;;;;2.72;2.25;;;;;;;18.86;46.07;100572.69;4990385;28;20042;-47
2022/02/04 16:17:28;;;;;;;4.82;2.80;;;;;;;18.88;46.06;100568.03;4986801;28;20141;-38
2022/02/04 16:19:55;;;;;;;4.57;2.00;;;;;;;18.89;46.11;100561.75;4990194;28;20077;-42
2022/02/04 16:25:11;;;;;;;5.00;2.05;;;;;;;18.96;46.03;100563.56;4990232;28;20038;-42
2022/02/04 16:30:06;;;;;;;6.38;2.70;;;;;;;19.03;46.08;100553.84;4989743;28;20042;-41
2022/02/04 16:32:32;;;;;;;2.55;1.58;;;;;;;19.07;46.22;100548.00;4989692;28;20030;-48
2022/02/04 16:35:02;;;;;;;3.05;1.70;;;;;;;19.13;45.99;100544.56;4989837;28;20117;-44
2022/02/04 16:37:37;;;;;;;3.20;2.17;;;;;;;19.18;45.93;100551.88;4978392;28;20030;-45
2022/02/04 16:40:16;;;;;;;3.92;2.08;;;;;;;19.24;45.89;100553.75;4988279;28;20045;-39
2022/02/04 16:42:44;;;;;;;4.35;2.22;;;;;;;19.31;45.93;100551.13;5005667;28;20026;-43
2022/02/04 16:45:10;;;;;;;3.88;1.70;;;;;;;19.36;45.88;100561.91;4985574;28;20031;-46
2022/02/04 16:47:36;;;;;;;5.85;1.75;;;;;;;19.40;45.85;100553.34;4987056;28;20035;-41
2022/02/04 16:50:02;;;;;;;4.80;2.00;;;;;;;19.46;45.79;100546.47;4989768;28;20038;-45
2022/02/04 16:52:29;;;;;;;6.35;1.80;;;;;;;19.49;45.89;100552.16;4989546;28;20037;-43
2022/02/04 16:54:55;;;;;;;5.78;1.90;;;;;;;19.54;45.89;100547.13;4992301;28;20025;-50
2022/02/04 16:57:24;;;;;;;4.47;1.88;;;;;;;19.61;45.68;100548.97;5004862;28;20060;-41
2022/02/04 16:59:56;;;;;;;8.00;2.05;;;;;;;19.67;45.71;100548.97;4985979;28;20125;-40
2022/02/04 17:02:22;;;;;;;5.13;1.90;;;;;;;19.75;45.85;100562.00;5003240;28;20096;-46
2022/02/04 17:04:48;;;;;;;7.53;2.88;;;;;;;19.87;45.84;100563.00;4996410;28;20101;-46
2022/02/04 17:07:20;;;;;;;4.15;1.75;;;;;;;19.97;45.68;100569.72;4990745;28;20026;-44
2022/02/04 17:09:49;;;;;;;7.63;1.95;;;;;;;20.08;45.49;100579.69;4989388;28;20496;-50
2022/02/04 17:12:28;;;;;;;4.90;1.67;;;;;;;20.15;45.76;100578.69;4989843;28;20046;-48
2022/02/04 17:14:54;;;;;;;4.50;1.73;;;;;;;20.23;45.62;100576.84;4990406;28;20109;-41
2022/02/04 17:17:24;;;;;;;5.40;1.90;;;;;;;20.26;45.55;100573.81;4988377;28;20125;-45
2022/02/04 17:20:01;;;;;;;3.22;1.63;;;;;;;20.31;45.35;100577.47;4973127;28;20072;-40
2022/02/04 17:22:27;;;;;;;4.72;1.88;;;;;;;20.37;45.37;100581.91;4986451;28;20042;-43
2022/02/04 17:24:52;;;;;;;6.97;2.05;;;;;;;20.38;45.48;100580.09;4995833;28;20469;-46
2022/02/04 17:27:18;;;;;;;3.03;1.30;;;;;;;20.43;45.33;100580.31;4989908;28;20145;-44
2022/02/04 17:29:44;;;;;;;2.17;1.58;;;;;;;20.48;45.34;100577.84;4988949;28;20121;-44
2022/02/04 17:32:09;;;;;;;6.40;1.80;;;;;;;20.53;45.27;100576.22;4975556;28;20061;-47
2022/02/04 17:34:35;;;;;;;7.43;2.22;;;;;;;20.57;45.18;100581.91;4977625;28;20080;-42
2022/02/04 17:37:01;;;;;;;4.03;1.58;;;;;;;20.61;45.36;100577.84;4997369;28;20037;-41
2022/02/04 17:39:27;;;;;;;3.58;2.00;;;;;;;20.63;45.42;100590.88;4976425;28;20059;-46
2022/02/04 17:41:57;;;;;;;3.63;1.60;;;;;;;20.62;45.32;100584.75;4981968;28;20070;-44
2022/02/04 17:44:23;;;;;;;8.27;1.50;;;;;;;20.62;44.96;100578.66;4960038;28;20038;-47
2022/02/04 17:46:50;;;;;;;3.05;1.77;;;;;;;20.62;44.96;100582.09;4941202;28;22311;-45
2022/02/04 17:49:30;;;;;;;5.72;1.98;;;;;;;20.63;45.07;100581.09;4961622;28;20038;-45
2022/02/04 17:52:19;;;;;;;4.78;1.77;;;;;;;20.61;44.83;100588.41;4955812;28;20058;-44
2022/02/04 18:09:08;;;;;;;3.50;1.83;;;;;;;20.53;44.83;100580.69;4948137;28;20061;-45
2022/02/04 18:11:41;;;;;;;3.35;1.73;;;;;;;20.53;44.97;100580.69;4973370;28;20106;-43
2022/02/04 18:14:07;;;;;;;6.65;1.92;;;;;;;20.52;44.97;100577.25;4969061;28;20030;-45
2022/02/04 18:16:32;;;;;;;3.95;1.80;;;;;;;20.53;44.79;100572.75;4972985;28;20031;-41
2022/02/04 18:18:58;;;;;;;4.05;1.77;;;;;;;20.51;44.60;100578.25;4966860;28;20501;-48
2022/02/04 18:21:23;;;;;;;2.42;1.70;;;;;;;20.51;44.69;100585.38;4962333;28;20035;-48
2022/02/04 18:23:49;;;;;;;6.18;1.75;;;;;;;20.51;44.91;100577.44;4960931;28;20051;-44